sensor_id;sensor_type;location;lat;lon;timestamp;pressure;altitude;pressure_sealevel;temperature;humidity
75219;BME280;63801;49.414;19.474;2023-10-13T00:01:31;94033.63;;;14.82;81.10
75219;BME280;63801;49.414;19.474;2023-10-13T00:03:31;94041.38;;;14.83;80.97
75219;BME280;63801;49.414;19.474;2023-10-13T00:05:33;94035.16;;;14.83;81.07
75219;BME280;63801;49.414;19.474;2023-10-13T00:07:33;94031.28;;;14.80;80.93
75219;BME280;63801;49.414;19.474;2023-10-13T00:09:33;94029.81;;;14.87;80.70
75219;BME280;63801;49.414;19.474;2023-10-13T00:11:41;94021.16;;;14.77;81.03
75219;BME280;63801;49.414;19.474;2023-10-13T00:13:41;94011.81;;;14.75;80.83
75219;BME280;63801;49.414;19.474;2023-10-13T00:15:45;94027.81;;;14.83;81.22
75219;BME280;63801;49.414;19.474;2023-10-13T00:17:58;94036.75;;;14.84;80.86
75219;BME280;63801;49.414;19.474;2023-10-13T00:19:59;94039.81;;;14.82;81.06
75219;BME280;63801;49.414;19.474;2023-10-13T00:22:00;94032.41;;;14.79;81.37
75219;BME280;63801;49.414;19.474;2023-10-13T00:24:09;94031.22;;;14.77;81.27
75219;BME280;63801;49.414;19.474;2023-10-13T00:26:13;94028.88;;;14.75;80.44
75219;BME280;63801;49.414;19.474;2023-10-13T00:28:18;94031.19;;;14.73;81.47
75219;BME280;63801;49.414;19.474;2023-10-13T00:30:23;94034.22;;;14.68;81.98
75219;BME280;63801;49.414;19.474;2023-10-13T00:32:33;94032.66;;;14.67;81.12
75219;BME280;63801;49.414;19.474;2023-10-13T00:34:37;94025.66;;;14.66;81.59
75219;BME280;63801;49.414;19.474;2023-10-13T00:36:38;94022.16;;;14.66;81.83
75219;BME280;63801;49.414;19.474;2023-10-13T00:38:57;94022.09;;;14.62;81.48
75219;BME280;63801;49.414;19.474;2023-10-13T00:40:58;94021.31;;;14.62;81.29
75219;BME280;63801;49.414;19.474;2023-10-13T00:43:06;94020.91;;;14.60;81.74
75219;BME280;63801;49.414;19.474;2023-10-13T00:45:26;94027.84;;;14.57;81.63
75219;BME280;63801;49.414;19.474;2023-10-13T00:47:28;94023.94;;;14.55;81.40
75219;BME280;63801;49.414;19.474;2023-10-13T00:49:47;94018.88;;;14.53;81.46
75219;BME280;63801;49.414;19.474;2023-10-13T00:51:49;94023.91;;;14.51;81.38
75219;BME280;63801;49.414;19.474;2023-10-13T00:53:50;94027.38;;;14.52;81.81
75219;BME280;63801;49.414;19.474;2023-10-13T00:55:51;94018.47;;;14.51;81.91
75219;BME280;63801;49.414;19.474;2023-10-13T00:57:52;94018.47;;;14.51;81.88
75219;BME280;63801;49.414;19.474;2023-10-13T00:59:55;94013.75;;;14.48;81.86
75219;BME280;63801;49.414;19.474;2023-10-13T01:02:12;94019.63;;;14.50;82.07
75219;BME280;63801;49.414;19.474;2023-10-13T01:04:31;94016.91;;;14.50;82.01
75219;BME280;63801;49.414;19.474;2023-10-13T01:06:32;94020.75;;;14.49;81.96
75219;BME280;63801;49.414;19.474;2023-10-13T01:08:33;94014.19;;;14.50;81.93
75219;BME280;63801;49.414;19.474;2023-10-13T01:10:37;94016.16;;;14.53;82.39
75219;BME280;63801;49.414;19.474;2023-10-13T01:12:41;94016.16;;;14.53;81.95
75219;BME280;63801;49.414;19.474;2023-10-13T01:14:42;94015.03;;;14.54;82.36
75219;BME280;63801;49.414;19.474;2023-10-13T01:16:45;94012.31;;;14.54;82.32
75219;BME280;63801;49.414;19.474;2023-10-13T01:18:45;94005.75;;;14.55;82.50
75219;BME280;63801;49.414;19.474;2023-10-13T01:20:48;94002.19;;;14.51;82.12
75219;BME280;63801;49.414;19.474;2023-10-13T01:22:52;93999.78;;;14.46;82.47
75219;BME280;63801;49.414;19.474;2023-10-13T01:24:56;94001.44;;;14.54;82.46
75219;BME280;63801;49.414;19.474;2023-10-13T01:27:06;93984.66;;;14.45;82.33
75219;BME280;63801;49.414;19.474;2023-10-13T01:29:20;93999.94;;;14.57;82.77
75219;BME280;63801;49.414;19.474;2023-10-13T01:31:26;94001.44;;;14.54;82.57
75219;BME280;63801;49.414;19.474;2023-10-13T01:33:37;93983.25;;;14.55;82.55
75219;BME280;63801;49.414;19.474;2023-10-13T01:35:37;93999.13;;;14.56;82.80
75219;BME280;63801;49.414;19.474;2023-10-13T01:37:58;94008.44;;;14.55;83.54
75219;BME280;63801;49.414;19.474;2023-10-13T01:39:58;94004.13;;;14.51;83.05
75219;BME280;63801;49.414;19.474;2023-10-13T01:41:58;94014.19;;;14.50;83.28
75219;BME280;63801;49.414;19.474;2023-10-13T01:43:59;94013.31;;;14.43;83.01
75219;BME280;63801;49.414;19.474;2023-10-13T01:45:59;94013.72;;;14.45;83.16
75219;BME280;63801;49.414;19.474;2023-10-13T01:48:00;94008.56;;;14.36;83.28
75219;BME280;63801;49.414;19.474;2023-10-13T01:50:01;94010.97;;;14.41;83.33
75219;BME280;63801;49.414;19.474;2023-10-13T01:52:14;94005.09;;;14.39;83.50
75219;BME280;63801;49.414;19.474;2023-10-13T01:54:18;94002.00;;;14.37;83.50
75219;BME280;63801;49.414;19.474;2023-10-13T01:56:18;93995.78;;;14.36;83.51
75219;BME280;63801;49.414;19.474;2023-10-13T01:58:23;94000.41;;;14.36;83.68
75219;BME280;63801;49.414;19.474;2023-10-13T02:00:26;94010.81;;;14.34;83.62
75219;BME280;63801;49.414;19.474;2023-10-13T02:02:29;94009.25;;;14.33;83.47
75219;BME280;63801;49.414;19.474;2023-10-13T02:04:30;93994.91;;;14.32;83.93
75219;BME280;63801;49.414;19.474;2023-10-13T02:06:42;93998.41;;;14.33;83.69
75219;BME280;63801;49.414;19.474;2023-10-13T02:08:44;94007.69;;;14.32;83.94
75219;BME280;63801;49.414;19.474;2023-10-13T02:10:47;94016.97;;;14.31;83.63
75219;BME280;63801;49.414;19.474;2023-10-13T02:12:47;94005.34;;;14.30;83.91
75219;BME280;63801;49.414;19.474;2023-10-13T02:14:47;94002.63;;;14.30;83.65
75219;BME280;63801;49.414;19.474;2023-10-13T02:16:48;93973.34;;;14.17;83.70
75219;BME280;63801;49.414;19.474;2023-10-13T02:18:55;93980.41;;;14.21;84.08
75219;BME280;63801;49.414;19.474;2023-10-13T02:21:02;94010.31;;;14.25;83.92
75219;BME280;63801;49.414;19.474;2023-10-13T02:23:12;94006.38;;;14.22;83.95
75219;BME280;63801;49.414;19.474;2023-10-13T02:25:13;94005.97;;;14.20;84.55
75219;BME280;63801;49.414;19.474;2023-10-13T02:27:17;93983.81;;;14.15;84.08
75219;BME280;63801;49.414;19.474;2023-10-13T02:29:17;94004.22;;;14.09;84.95
75219;BME280;63801;49.414;19.474;2023-10-13T02:31:17;94000.72;;;14.08;84.66
75219;BME280;63801;49.414;19.474;2023-10-13T02:33:19;94004.97;;;14.06;84.86
75219;BME280;63801;49.414;19.474;2023-10-13T02:35:29;93988.47;;;13.91;85.13
75219;BME280;63801;49.414;19.474;2023-10-13T02:37:30;94008.31;;;13.99;85.45
75219;BME280;63801;49.414;19.474;2023-10-13T02:39:31;93993.34;;;13.82;85.46
75219;BME280;63801;49.414;19.474;2023-10-13T02:41:36;94005.75;;;13.83;85.34
75219;BME280;63801;49.414;19.474;2023-10-13T02:43:40;94015.56;;;13.91;85.58
75219;BME280;63801;49.414;19.474;2023-10-13T02:45:40;94020.59;;;13.89;85.65
75219;BME280;63801;49.414;19.474;2023-10-13T02:47:41;94032.91;;;13.87;85.50
75219;BME280;63801;49.414;19.474;2023-10-13T02:49:44;94018.47;;;13.79;85.93
75219;BME280;63801;49.414;19.474;2023-10-13T02:51:46;94030.16;;;13.83;86.06
75219;BME280;63801;49.414;19.474;2023-10-13T02:53:47;94022.81;;;13.84;86.07
75219;BME280;63801;49.414;19.474;2023-10-13T02:55:54;94012.66;;;13.81;85.88
75219;BME280;63801;49.414;19.474;2023-10-13T02:58:06;94008.78;;;13.78;86.34
75219;BME280;63801;49.414;19.474;2023-10-13T03:00:08;94025.81;;;13.79;86.75
75219;BME280;63801;49.414;19.474;2023-10-13T03:02:16;94017.25;;;13.77;86.21
75219;BME280;63801;49.414;19.474;2023-10-13T03:04:25;94025.38;;;13.77;86.19
75219;BME280;63801;49.414;19.474;2023-10-13T03:06:27;94025.75;;;13.75;86.11
75219;BME280;63801;49.414;19.474;2023-10-13T03:08:33;94033.44;;;13.73;86.76
75219;BME280;63801;49.414;19.474;2023-10-13T03:10:37;94028.81;;;13.74;86.62
75219;BME280;63801;49.414;19.474;2023-10-13T03:12:45;94032.66;;;13.73;86.67
75219;BME280;63801;49.414;19.474;2023-10-13T03:14:49;94015.63;;;13.72;86.75
75219;BME280;63801;49.414;19.474;2023-10-13T03:16:56;94008.16;;;13.66;87.00
75219;BME280;63801;49.414;19.474;2023-10-13T03:19:03;94024.13;;;13.71;87.23
75219;BME280;63801;49.414;19.474;2023-10-13T03:21:07;94021.78;;;13.69;87.68
75219;BME280;63801;49.414;19.474;2023-10-13T03:23:08;94012.50;;;13.70;87.25
75219;BME280;63801;49.414;19.474;2023-10-13T03:25:09;94020.63;;;13.70;87.03
75219;BME280;63801;49.414;19.474;2023-10-13T03:27:17;94021.41;;;13.71;87.20
75219;BME280;63801;49.414;19.474;2023-10-13T03:29:21;94008.66;;;13.71;87.38
75219;BME280;63801;49.414;19.474;2023-10-13T03:31:24;94006.75;;;13.72;87.42
75219;BME280;63801;49.414;19.474;2023-10-13T03:33:28;94012.50;;;13.70;87.44
75219;BME280;63801;49.414;19.474;2023-10-13T03:35:29;94016.41;;;13.73;87.02
75219;BME280;63801;49.414;19.474;2023-10-13T03:37:37;94011.38;;;13.71;87.19
75219;BME280;63801;49.414;19.474;2023-10-13T03:39:38;94001.66;;;13.70;87.25
75219;BME280;63801;49.414;19.474;2023-10-13T03:41:38;93994.91;;;13.61;86.96
75219;BME280;63801;49.414;19.474;2023-10-13T03:43:39;94002.41;;;13.67;86.74
75219;BME280;63801;49.414;19.474;2023-10-13T03:45:51;93999.75;;;13.71;87.06
75219;BME280;63801;49.414;19.474;2023-10-13T03:48:00;94018.34;;;13.72;86.94
75219;BME280;63801;49.414;19.474;2023-10-13T03:50:09;94005.16;;;13.71;87.09
75219;BME280;63801;49.414;19.474;2023-10-13T03:52:15;94006.31;;;13.70;87.02
75219;BME280;63801;49.414;19.474;2023-10-13T03:54:22;94007.09;;;13.70;87.18
75219;BME280;63801;49.414;19.474;2023-10-13T03:56:28;93995.28;;;13.59;86.80
75219;BME280;63801;49.414;19.474;2023-10-13T03:58:41;94014.00;;;13.68;87.01
75219;BME280;63801;49.414;19.474;2023-10-13T04:00:45;94011.84;;;13.54;87.27
75219;BME280;63801;49.414;19.474;2023-10-13T04:02:47;94016.25;;;13.62;87.49
75219;BME280;63801;49.414;19.474;2023-10-13T04:04:53;94029.50;;;13.67;87.50
75219;BME280;63801;49.414;19.474;2023-10-13T04:06:55;94022.13;;;13.68;87.23
75219;BME280;63801;49.414;19.474;2023-10-13T04:09:17;94016.31;;;13.66;87.49
75219;BME280;63801;49.414;19.474;2023-10-13T04:11:30;94018.56;;;13.64;87.55
75219;BME280;63801;49.414;19.474;2023-10-13T04:13:48;94013.94;;;13.64;87.12
75219;BME280;63801;49.414;19.474;2023-10-13T04:16:09;94000.00;;;13.62;87.32
75219;BME280;63801;49.414;19.474;2023-10-13T04:18:15;94007.72;;;13.64;87.55
75219;BME280;63801;49.414;19.474;2023-10-13T04:20:34;94006.59;;;13.65;87.60
75219;BME280;63801;49.414;19.474;2023-10-13T04:22:42;94014.38;;;13.66;87.61
75219;BME280;63801;49.414;19.474;2023-10-13T04:24:49;94004.13;;;13.56;87.48
75219;BME280;63801;49.414;19.474;2023-10-13T04:27:21;94023.28;;;13.67;87.31
75219;BME280;63801;49.414;19.474;2023-10-13T04:29:44;93998.31;;;13.54;87.51
75219;BME280;63801;49.414;19.474;2023-10-13T04:32:03;94023.69;;;13.69;87.42
75219;BME280;63801;49.414;19.474;2023-10-13T04:34:13;94024.06;;;13.67;87.14
75219;BME280;63801;49.414;19.474;2023-10-13T04:36:19;93994.44;;;13.55;87.58
75219;BME280;63801;49.414;19.474;2023-10-13T04:38:25;94016.72;;;13.68;86.87
75219;BME280;63801;49.414;19.474;2023-10-13T04:40:33;94016.31;;;13.66;87.44
75219;BME280;63801;49.414;19.474;2023-10-13T04:42:37;94025.63;;;13.68;88.02
75219;BME280;63801;49.414;19.474;2023-10-13T04:45:00;94024.91;;;13.71;87.69
75219;BME280;63801;49.414;19.474;2023-10-13T04:47:16;94023.00;;;13.72;87.50
75219;BME280;63801;49.414;19.474;2023-10-13T04:49:21;94016.41;;;13.73;87.41
75219;BME280;63801;49.414;19.474;2023-10-13T04:51:37;94017.97;;;13.74;87.55
75219;BME280;63801;49.414;19.474;2023-10-13T04:53:58;94017.63;;;13.75;87.39
75219;BME280;63801;49.414;19.474;2023-10-13T04:56:04;94010.28;;;13.76;87.15
75219;BME280;63801;49.414;19.474;2023-10-13T04:58:04;94020.34;;;13.75;87.26
75219;BME280;63801;49.414;19.474;2023-10-13T05:00:14;94020.75;;;13.77;87.52
75219;BME280;63801;49.414;19.474;2023-10-13T05:02:18;94022.66;;;13.77;87.67
75219;BME280;63801;49.414;19.474;2023-10-13T05:04:36;94008.66;;;13.71;87.30
75219;BME280;63801;49.414;19.474;2023-10-13T05:06:59;94006.25;;;13.66;87.64
75219;BME280;63801;49.414;19.474;2023-10-13T05:09:18;94012.91;;;13.72;87.33
75219;BME280;63801;49.414;19.474;2023-10-13T05:11:37;94022.66;;;13.77;87.65
75219;BME280;63801;49.414;19.474;2023-10-13T05:13:56;94023.84;;;13.76;87.86
75219;BME280;63801;49.414;19.474;2023-10-13T05:16:14;94026.59;;;13.79;87.62
75219;BME280;63801;49.414;19.474;2023-10-13T05:18:33;94020.34;;;13.75;87.62
75219;BME280;63801;49.414;19.474;2023-10-13T05:20:55;94020.03;;;13.80;87.50
75219;BME280;63801;49.414;19.474;2023-10-13T05:23:14;94015.75;;;13.79;87.52
75219;BME280;63801;49.414;19.474;2023-10-13T05:25:37;94029.00;;;13.84;87.70
75219;BME280;63801;49.414;19.474;2023-10-13T05:27:56;94028.22;;;13.84;87.52
75219;BME280;63801;49.414;19.474;2023-10-13T05:30:15;94027.84;;;13.85;87.52
75219;BME280;63801;49.414;19.474;2023-10-13T05:32:34;94035.28;;;13.88;87.41
75219;BME280;63801;49.414;19.474;2023-10-13T05:34:53;94033.75;;;13.91;87.56
75219;BME280;63801;49.414;19.474;2023-10-13T05:37:12;94031.09;;;13.94;87.58
75219;BME280;63801;49.414;19.474;2023-10-13T05:39:30;94030.41;;;13.98;86.99
75219;BME280;63801;49.414;19.474;2023-10-13T05:41:49;94024.97;;;13.98;87.30
75219;BME280;63801;49.414;19.474;2023-10-13T05:44:08;94039.41;;;14.05;87.19
75219;BME280;63801;49.414;19.474;2023-10-13T05:46:28;94037.06;;;14.04;87.43
75219;BME280;63801;49.414;19.474;2023-10-13T05:48:28;94036.81;;;14.12;87.21
75219;BME280;63801;49.414;19.474;2023-10-13T05:50:52;94042.72;;;14.18;87.13
75219;BME280;63801;49.414;19.474;2023-10-13T05:53:18;94040.84;;;14.22;87.16
75219;BME280;63801;49.414;19.474;2023-10-13T05:55:37;94043.25;;;14.27;87.29
75219;BME280;63801;49.414;19.474;2023-10-13T05:57:56;94048.31;;;14.28;86.75
75219;BME280;63801;49.414;19.474;2023-10-13T06:00:15;94053.00;;;14.31;87.26
75219;BME280;63801;49.414;19.474;2023-10-13T06:02:34;94054.19;;;14.34;87.17
75219;BME280;63801;49.414;19.474;2023-10-13T06:04:53;94039.34;;;14.24;86.77
75219;BME280;63801;49.414;19.474;2023-10-13T06:07:12;94036.72;;;14.31;87.09
75219;BME280;63801;49.414;19.474;2023-10-13T06:09:31;94052.47;;;14.45;87.32
75219;BME280;63801;49.414;19.474;2023-10-13T06:11:50;94050.28;;;14.54;87.32
75219;BME280;63801;49.414;19.474;2023-10-13T06:14:08;94054.31;;;14.64;87.09
75219;BME280;63801;49.414;19.474;2023-10-13T06:16:27;94061.34;;;14.68;87.31
75219;BME280;63801;49.414;19.474;2023-10-13T06:18:46;94056.75;;;14.72;87.10
75219;BME280;63801;49.414;19.474;2023-10-13T06:21:05;94062.97;;;14.73;87.26
75219;BME280;63801;49.414;19.474;2023-10-13T06:23:24;94059.78;;;14.67;86.70
75219;BME280;63801;49.414;19.474;2023-10-13T06:25:50;94055.97;;;14.72;86.37
75219;BME280;63801;49.414;19.474;2023-10-13T06:28:09;94074.94;;;14.68;86.86
75219;BME280;63801;49.414;19.474;2023-10-13T06:30:28;94070.63;;;14.67;86.60
75219;BME280;63801;49.414;19.474;2023-10-13T06:32:28;94069.06;;;14.66;86.41
75219;BME280;63801;49.414;19.474;2023-10-13T06:34:29;94071.41;;;14.68;86.44
75219;BME280;63801;49.414;19.474;2023-10-13T06:36:38;94068.97;;;14.59;86.75
75219;BME280;63801;49.414;19.474;2023-10-13T06:38:40;94081.88;;;14.69;86.89
75219;BME280;63801;49.414;19.474;2023-10-13T06:40:45;94084.59;;;14.69;86.81
75219;BME280;63801;49.414;19.474;2023-10-13T06:42:48;94087.75;;;14.71;86.84
75219;BME280;63801;49.414;19.474;2023-10-13T06:44:49;94088.59;;;14.75;86.75
75219;BME280;63801;49.414;19.474;2023-10-13T06:46:53;94080.88;;;14.77;86.81
75219;BME280;63801;49.414;19.474;2023-10-13T06:48:53;94066.81;;;14.72;86.84
75219;BME280;63801;49.414;19.474;2023-10-13T06:50:53;94086.38;;;14.84;86.57
75219;BME280;63801;49.414;19.474;2023-10-13T06:52:56;94089.06;;;14.81;86.39
75219;BME280;63801;49.414;19.474;2023-10-13T06:54:56;94080.13;;;14.80;86.52
75219;BME280;63801;49.414;19.474;2023-10-13T06:56:56;94076.97;;;14.78;87.06
75219;BME280;63801;49.414;19.474;2023-10-13T06:58:58;94096.50;;;14.88;86.70
75219;BME280;63801;49.414;19.474;2023-10-13T07:01:06;94088.66;;;14.82;86.68
75219;BME280;63801;49.414;19.474;2023-10-13T07:03:07;94095.84;;;14.94;86.74
75219;BME280;63801;49.414;19.474;2023-10-13T07:05:17;94103.97;;;14.94;86.96
75219;BME280;63801;49.414;19.474;2023-10-13T07:07:19;94098.56;;;14.94;86.25
75219;BME280;63801;49.414;19.474;2023-10-13T07:09:22;94093.38;;;14.86;86.86
75219;BME280;63801;49.414;19.474;2023-10-13T07:11:49;94098.88;;;14.89;86.37
75219;BME280;63801;49.414;19.474;2023-10-13T07:13:52;94100.78;;;14.89;86.40
75219;BME280;63801;49.414;19.474;2023-10-13T07:15:54;94082.41;;;14.78;86.57
75219;BME280;63801;49.414;19.474;2023-10-13T07:18:00;94086.34;;;14.81;86.92
75219;BME280;63801;49.414;19.474;2023-10-13T07:20:05;94094.53;;;14.84;86.81
75219;BME280;63801;49.414;19.474;2023-10-13T07:22:15;94079.00;;;14.81;86.61
75219;BME280;63801;49.414;19.474;2023-10-13T07:24:21;94086.06;;;14.90;86.99
75219;BME280;63801;49.414;19.474;2023-10-13T07:26:22;94088.78;;;14.90;87.02
75219;BME280;63801;49.414;19.474;2023-10-13T07:28:23;94089.16;;;14.88;86.55
75219;BME280;63801;49.414;19.474;2023-10-13T07:30:24;94089.63;;;14.94;86.49
75219;BME280;63801;49.414;19.474;2023-10-13T07:32:27;94093.94;;;14.98;86.65
75219;BME280;63801;49.414;19.474;2023-10-13T07:34:27;94091.28;;;15.02;86.45
75219;BME280;63801;49.414;19.474;2023-10-13T07:36:31;94086.69;;;15.06;86.27
75219;BME280;63801;49.414;19.474;2023-10-13T07:38:39;94075.81;;;15.06;86.65
75219;BME280;63801;49.414;19.474;2023-10-13T07:40:43;94077.84;;;15.12;86.58
75219;BME280;63801;49.414;19.474;2023-10-13T07:43:06;94079.22;;;15.29;86.50
75219;BME280;63801;49.414;19.474;2023-10-13T07:45:10;94075.75;;;15.32;86.21
75219;BME280;63801;49.414;19.474;2023-10-13T07:47:14;94069.25;;;15.40;85.70
75219;BME280;63801;49.414;19.474;2023-10-13T07:49:14;94054.06;;;15.36;85.96
75219;BME280;63801;49.414;19.474;2023-10-13T07:51:15;94079.22;;;15.59;85.59
75219;BME280;63801;49.414;19.474;2023-10-13T07:53:18;94073.47;;;15.67;85.17
75219;BME280;63801;49.414;19.474;2023-10-13T07:55:20;94081.34;;;15.76;85.63
75219;BME280;63801;49.414;19.474;2023-10-13T07:57:22;94080.31;;;15.88;85.04
75219;BME280;63801;49.414;19.474;2023-10-13T07:59:29;94073.34;;;15.94;84.96
75219;BME280;63801;49.414;19.474;2023-10-13T08:01:29;94080.88;;;16.07;84.91
75219;BME280;63801;49.414;19.474;2023-10-13T08:03:30;94079.44;;;16.21;84.54
75219;BME280;63801;49.414;19.474;2023-10-13T08:05:52;94072.47;;;16.23;83.86
75219;BME280;63801;49.414;19.474;2023-10-13T08:07:58;94065.16;;;16.31;83.62
75219;BME280;63801;49.414;19.474;2023-10-13T08:10:00;94081.25;;;16.50;83.28
75219;BME280;63801;49.414;19.474;2023-10-13T08:12:01;94077.47;;;16.61;83.97
75219;BME280;63801;49.414;19.474;2023-10-13T08:14:06;94086.09;;;16.71;82.79
75219;BME280;63801;49.414;19.474;2023-10-13T08:16:18;94082.63;;;16.74;82.85
75219;BME280;63801;49.414;19.474;2023-10-13T08:18:22;94079.19;;;16.84;82.09
75219;BME280;63801;49.414;19.474;2023-10-13T08:20:33;94086.25;;;16.92;82.07
75219;BME280;63801;49.414;19.474;2023-10-13T08:22:38;94079.28;;;16.98;81.85
75219;BME280;63801;49.414;19.474;2023-10-13T08:24:40;94079.66;;;17.00;82.20
75219;BME280;63801;49.414;19.474;2023-10-13T08:26:40;94084.41;;;17.10;81.38
75219;BME280;63801;49.414;19.474;2023-10-13T08:29:03;94090.28;;;17.19;81.75
75219;BME280;63801;49.414;19.474;2023-10-13T08:31:19;94089.56;;;17.26;81.48
75219;BME280;63801;49.414;19.474;2023-10-13T08:33:41;94092.31;;;17.36;81.42
75219;BME280;63801;49.414;19.474;2023-10-13T08:35:46;94095.81;;;17.33;80.12
75219;BME280;63801;49.414;19.474;2023-10-13T08:38:16;94093.09;;;17.33;79.43
75219;BME280;63801;49.414;19.474;2023-10-13T08:40:17;94083.31;;;17.25;79.55
75219;BME280;63801;49.414;19.474;2023-10-13T08:42:40;94095.09;;;17.43;80.27
75219;BME280;63801;49.414;19.474;2023-10-13T08:44:45;94092.13;;;17.84;80.10
75219;BME280;63801;49.414;19.474;2023-10-13T08:46:52;94093.00;;;18.23;80.10
75219;BME280;63801;49.414;19.474;2023-10-13T08:49:05;94093.06;;;18.69;77.98
75219;BME280;63801;49.414;19.474;2023-10-13T08:51:18;94089.53;;;18.97;77.34
75219;BME280;63801;49.414;19.474;2023-10-13T08:53:40;94077.72;;;19.43;76.13
75219;BME280;63801;49.414;19.474;2023-10-13T08:56:05;94081.81;;;19.93;73.82
75219;BME280;63801;49.414;19.474;2023-10-13T08:58:14;94084.63;;;20.48;72.62
75219;BME280;63801;49.414;19.474;2023-10-13T09:00:15;94082.81;;;20.79;72.06
75219;BME280;63801;49.414;19.474;2023-10-13T09:02:47;94089.09;;;21.21;69.29
75219;BME280;63801;49.414;19.474;2023-10-13T09:05:20;94082.34;;;21.29;69.18
75219;BME280;63801;49.414;19.474;2023-10-13T09:07:45;94083.28;;;21.12;68.06
75219;BME280;63801;49.414;19.474;2023-10-13T09:09:48;94081.13;;;20.92;66.34
75219;BME280;63801;49.414;19.474;2023-10-13T09:11:55;94088.41;;;20.65;66.17
75219;BME280;63801;49.414;19.474;2023-10-13T09:14:24;94094.84;;;20.44;67.11
75219;BME280;63801;49.414;19.474;2023-10-13T09:16:33;94085.41;;;20.49;67.98
75219;BME280;63801;49.414;19.474;2023-10-13T09:18:39;94092.38;;;20.57;67.27
75219;BME280;63801;49.414;19.474;2023-10-13T09:20:46;94088.53;;;20.47;66.22
75219;BME280;63801;49.414;19.474;2023-10-13T09:22:47;94091.75;;;20.32;65.99
75219;BME280;63801;49.414;19.474;2023-10-13T09:25:07;94093.03;;;20.16;65.69
75219;BME280;63801;49.414;19.474;2023-10-13T09:27:13;94081.00;;;20.00;66.05
75219;BME280;63801;49.414;19.474;2023-10-13T09:29:15;94081.44;;;19.91;66.19
75219;BME280;63801;49.414;19.474;2023-10-13T09:31:22;94083.78;;;19.89;65.52
75219;BME280;63801;49.414;19.474;2023-10-13T09:33:28;94091.50;;;20.05;66.36
75219;BME280;63801;49.414;19.474;2023-10-13T09:35:32;94063.81;;;19.92;65.66
75219;BME280;63801;49.414;19.474;2023-10-13T09:37:34;94087.66;;;19.95;64.96
75219;BME280;63801;49.414;19.474;2023-10-13T09:39:38;94074.44;;;19.87;65.19
75219;BME280;63801;49.414;19.474;2023-10-13T09:41:44;94093.16;;;19.88;64.43
75219;BME280;63801;49.414;19.474;2023-10-13T09:43:47;94067.47;;;19.68;64.74
75219;BME280;63801;49.414;19.474;2023-10-13T09:45:59;94091.34;;;19.64;64.29
75219;BME280;63801;49.414;19.474;2023-10-13T09:48:10;94094.06;;;19.57;64.80
75219;BME280;63801;49.414;19.474;2023-10-13T09:50:16;94082.00;;;19.51;65.07
75219;BME280;63801;49.414;19.474;2023-10-13T09:52:24;94073.38;;;19.59;65.58
75219;BME280;63801;49.414;19.474;2023-10-13T09:54:38;94063.53;;;19.72;66.01
75219;BME280;63801;49.414;19.474;2023-10-13T09:56:50;94058.75;;;19.94;65.65
75219;BME280;63801;49.414;19.474;2023-10-13T09:58:58;94059.34;;;20.19;65.78
75219;BME280;63801;49.414;19.474;2023-10-13T10:01:02;94066.34;;;20.35;65.08
75219;BME280;63801;49.414;19.474;2023-10-13T10:03:10;94055.72;;;20.44;64.52
75219;BME280;63801;49.414;19.474;2023-10-13T10:05:29;94064.78;;;20.34;62.86
75219;BME280;63801;49.414;19.474;2023-10-13T10:07:34;94071.47;;;20.18;63.51
75219;BME280;63801;49.414;19.474;2023-10-13T10:09:34;94063.03;;;19.95;63.06
75219;BME280;63801;49.414;19.474;2023-10-13T10:14:03;94068.53;;;19.88;64.36
75219;BME280;63801;49.414;19.474;2023-10-13T10:16:11;94062.28;;;19.88;64.37
75219;BME280;63801;49.414;19.474;2023-10-13T10:18:22;94054.13;;;19.81;64.31
75219;BME280;63801;49.414;19.474;2023-10-13T10:22:42;94055.06;;;20.18;65.06
75219;BME280;63801;49.414;19.474;2023-10-13T10:24:58;94065.94;;;20.33;64.29
75219;BME280;63801;49.414;19.474;2023-10-13T10:26:59;94058.88;;;20.39;64.70
75219;BME280;63801;49.414;19.474;2023-10-13T10:28:59;94041.72;;;20.31;63.81
75219;BME280;63801;49.414;19.474;2023-10-13T10:31:11;94045.59;;;20.34;64.19
75219;BME280;63801;49.414;19.474;2023-10-13T10:33:29;94058.81;;;20.46;64.20
75219;BME280;63801;49.414;19.474;2023-10-13T10:35:33;94052.16;;;20.47;64.22
75219;BME280;63801;49.414;19.474;2023-10-13T10:37:34;94069.78;;;20.42;63.46
75219;BME280;63801;49.414;19.474;2023-10-13T10:39:37;94053.78;;;20.37;63.63
75219;BME280;63801;49.414;19.474;2023-10-13T10:41:47;94055.41;;;20.24;63.15
75219;BME280;63801;49.414;19.474;2023-10-13T10:43:54;94039.03;;;20.21;63.41
75219;BME280;63801;49.414;19.474;2023-10-13T10:45:55;94048.72;;;20.29;63.67
75219;BME280;63801;49.414;19.474;2023-10-13T10:48:02;94044.88;;;20.19;63.87
75219;BME280;63801;49.414;19.474;2023-10-13T10:50:25;94046.88;;;20.15;63.40
75219;BME280;63801;49.414;19.474;2023-10-13T10:52:32;94031.97;;;20.19;64.08
75219;BME280;63801;49.414;19.474;2023-10-13T10:54:37;94040.59;;;20.22;64.11
75219;BME280;63801;49.414;19.474;2023-10-13T10:56:44;94039.38;;;20.23;64.52
75219;BME280;63801;49.414;19.474;2023-10-13T10:58:56;94012.47;;;20.10;64.30
75219;BME280;63801;49.414;19.474;2023-10-13T11:01:06;94037.03;;;20.25;64.65
75219;BME280;63801;49.414;19.474;2023-10-13T11:03:10;94029.97;;;20.31;64.22
75219;BME280;63801;49.414;19.474;2023-10-13T11:05:12;94036.22;;;20.35;64.29
75219;BME280;63801;49.414;19.474;2023-10-13T11:07:24;94024.47;;;20.34;64.02
75219;BME280;63801;49.414;19.474;2023-10-13T11:11:30;94017.94;;;20.17;64.00
75219;BME280;63801;49.414;19.474;2023-10-13T11:13:42;94028.47;;;20.19;64.17
75219;BME280;63801;49.414;19.474;2023-10-13T11:15:50;94027.78;;;20.04;64.13
75219;BME280;63801;49.414;19.474;2023-10-13T11:17:51;94033.31;;;19.94;64.37